createdAt,value
2017-11-10T00:00:17.044Z,77.45
2017-11-10T00:00:57.468Z,77.89
2017-11-10T00:01:37.843Z,78.56
2017-11-10T00:02:18.338Z,78.75
2017-11-10T00:02:58.758Z,78.75
2017-11-10T00:03:39.124Z,79.51
2017-11-10T00:04:19.531Z,79.13
2017-11-10T00:04:59.930Z,79.13
2017-11-10T00:05:40.304Z,78.56
2017-11-10T00:06:20.713Z,78.85
2017-11-10T00:07:01.152Z,78.94
2017-11-10T00:07:41.731Z,79.99
2017-11-10T00:08:22.072Z,79.03
2017-11-10T00:09:02.520Z,79.22
2017-11-10T00:09:42.893Z,79.41
2017-11-10T00:10:23.301Z,79.22
2017-11-10T00:11:03.687Z,80.08
2017-11-10T00:11:44.079Z,80.36
2017-11-10T00:12:24.492Z,79.99
2017-11-10T00:13:04.888Z,79.99
2017-11-10T00:13:45.231Z,80.02
2017-11-10T00:14:25.684Z,79.46
2017-11-10T00:15:06.121Z,80.12
2017-11-10T00:15:46.494Z,79.74
2017-11-10T00:16:26.932Z,79.93
2017-11-10T00:17:07.374Z,80.12
2017-11-10T00:17:47.888Z,79.83
2017-11-10T00:18:28.330Z,80.31
2017-11-10T00:19:08.799Z,79.55
2017-11-10T00:19:49.143Z,79.46
2017-11-10T00:20:29.527Z,79.88
2017-11-10T00:21:09.949Z,79.3
2017-11-10T00:21:50.447Z,78.64
2017-11-10T00:22:30.787Z,78.92
2017-11-10T00:23:11.225Z,79.21
2017-11-10T00:23:51.600Z,78.64
2017-11-10T00:24:32.013Z,78.25
2017-11-10T00:25:12.424Z,77.97
2017-11-10T00:25:52.836Z,77.87
2017-11-10T00:26:33.467Z,77.72
2017-11-10T00:27:14.125Z,77.15
2017-11-10T00:27:54.756Z,77.15
2017-11-10T00:28:35.214Z,76.86
2017-11-10T00:29:15.641Z,77.06
2017-11-10T00:31:30.307Z,76.67
2017-11-10T00:32:12.304Z,76.77
2017-11-10T00:32:52.697Z,76.67
2017-11-10T00:33:33.106Z,76.67
2017-11-10T00:34:13.512Z,77.15
2017-11-10T00:34:53.953Z,77.25
2017-11-10T00:35:34.328Z,77.25
2017-11-10T00:36:14.802Z,76.67
2017-11-10T00:36:55.135Z,76.29
2017-11-10T00:37:35.567Z,76.57
2017-11-10T00:38:16.050Z,76.57
2017-11-10T00:38:56.454Z,75.81
2017-11-10T00:39:36.833Z,74.96
2017-11-10T00:40:17.251Z,75.34
2017-11-10T00:40:57.682Z,75.05
2017-11-10T00:41:38.052Z,75.43
2017-11-10T00:42:18.418Z,75.43
2017-11-10T00:42:58.847Z,75.34
2017-11-10T00:43:39.220Z,75.15
2017-11-10T00:44:19.657Z,75.53
2017-11-10T00:45:00.209Z,75.05
2017-11-10T00:45:40.882Z,74.19
2017-11-10T00:46:21.080Z,74.29
2017-11-10T00:47:01.504Z,75.53
2017-11-10T00:47:41.906Z,75.91
2017-11-10T00:48:22.353Z,76.1
2017-11-10T00:49:02.810Z,75.43
2017-11-10T00:49:43.202Z,75.24
2017-11-10T00:50:23.587Z,75.05
2017-11-10T00:51:04.030Z,75.53
2017-11-10T00:51:44.482Z,74.67
2017-11-10T00:52:24.839Z,74.8
2017-11-10T00:53:05.257Z,74.96
2017-11-10T00:53:45.713Z,74.99
2017-11-10T00:54:26.116Z,74.67
2017-11-10T00:55:06.539Z,74.96
2017-11-10T00:55:46.950Z,75.15
2017-11-10T00:56:27.335Z,74.99
2017-11-10T00:57:07.752Z,74.9
2017-11-10T00:57:48.148Z,75.18
2017-11-10T00:58:28.578Z,74.23
2017-11-10T00:59:09.044Z,74.42
2017-11-10T00:59:49.533Z,74.32
2017-11-10T01:00:30.087Z,74.42
2017-11-10T01:01:10.385Z,74.8
2017-11-10T01:01:50.775Z,74.42
2017-11-10T01:02:31.168Z,74.32
2017-11-10T01:03:11.582Z,74.32
2017-11-10T01:03:52.007Z,74.52
2017-11-10T01:04:32.405Z,74.13
2017-11-10T01:05:12.863Z,73.94
2017-11-10T01:05:53.284Z,73.85
2017-11-10T01:06:33.802Z,74.04
2017-11-10T01:07:14.196Z,73.85
2017-11-10T01:07:54.520Z,74.23
2017-11-10T01:08:34.953Z,74.23
2017-11-10T01:09:15.333Z,74.32
2017-11-10T01:09:55.776Z,74.71
2017-11-10T01:10:36.201Z,74.8
2017-11-10T01:11:16.575Z,74.42
2017-11-10T01:11:56.973Z,74.61
2017-11-10T01:12:37.376Z,74.32
2017-11-10T01:13:17.920Z,74.32
2017-11-10T01:13:58.417Z,74.23
2017-11-10T01:14:38.756Z,73.66
2017-11-10T01:15:19.174Z,74.52
2017-11-10T01:15:59.710Z,74.61
2017-11-10T01:16:40.273Z,74.67
2017-11-10T01:17:20.709Z,75.05
2017-11-10T01:18:01.122Z,75.05
2017-11-10T01:18:41.536Z,76.1
2017-11-10T01:19:21.966Z,76.48
2017-11-10T01:20:02.507Z,76.77
2017-11-10T01:20:42.870Z,77.25
2017-11-10T01:21:23.408Z,77.44
2017-11-10T01:22:03.763Z,77.76
2017-11-10T01:22:44.208Z,78.1
2017-11-10T01:23:24.628Z,78.01
2017-11-10T01:24:05.080Z,78.14
2017-11-10T01:24:45.464Z,78.33
2017-11-10T01:25:25.974Z,78.01
2017-11-10T01:26:06.491Z,78.39
2017-11-10T01:26:46.974Z,78.01
2017-11-10T01:27:27.346Z,78.33
2017-11-10T01:28:07.767Z,78.39
2017-11-10T01:28:48.255Z,77.91
2017-11-10T01:29:28.569Z,77.82
2017-11-10T01:30:09.003Z,78.2
2017-11-10T01:30:49.431Z,78.2
2017-11-10T01:31:29.831Z,78.39
2017-11-10T01:32:10.173Z,78.1
2017-11-10T01:32:50.583Z,78.49
2017-11-10T01:33:31.032Z,78.49
2017-11-10T01:34:11.402Z,79.25
2017-11-10T01:34:51.780Z,78.58
2017-11-10T01:35:32.207Z,78.67
2017-11-10T01:36:12.671Z,78.58
2017-11-10T01:36:53.128Z,78.67
2017-11-10T01:37:33.550Z,78.01
2017-11-10T01:38:14.008Z,78.49
2017-11-10T01:38:54.365Z,78.3
2017-11-10T01:39:34.797Z,79.15
2017-11-10T01:40:15.225Z,79.44
2017-11-10T01:40:55.685Z,79.53
2017-11-10T01:41:36.226Z,78.96
2017-11-10T01:42:16.536Z,78.58
2017-11-10T01:42:56.917Z,78.67
2017-11-10T01:43:37.374Z,79.25
2017-11-10T01:44:17.942Z,79.3
2017-11-10T01:44:58.293Z,79.49
2017-11-10T01:45:38.768Z,79.78
2017-11-10T01:46:19.206Z,79.88
2017-11-10T01:46:59.680Z,80.16
2017-11-10T01:47:40.064Z,81.12
2017-11-10T01:48:20.477Z,81.12
2017-11-10T01:49:00.884Z,81.12
2017-11-10T01:49:41.342Z,80.64
2017-11-10T01:50:21.741Z,81.02
2017-11-10T01:51:02.193Z,80.88
2017-11-10T01:51:42.776Z,82.12
2017-11-10T01:52:23.022Z,82.21
2017-11-10T01:53:03.440Z,82.69
2017-11-10T01:53:43.959Z,83.17
2017-11-10T01:54:27.070Z,83.65
2017-11-10T01:55:07.520Z,83.84
2017-11-10T01:55:47.865Z,83.84
2017-11-10T01:56:28.336Z,83.65
2017-11-10T01:57:08.726Z,83.74
2017-11-10T01:57:49.159Z,83.65
2017-11-10T01:58:29.702Z,82.6
2017-11-10T01:59:09.998Z,82.89
2017-11-10T01:59:50.429Z,82.31
2017-11-10T02:00:30.883Z,83.22
2017-11-10T02:01:11.286Z,82.65
2017-11-10T02:01:51.632Z,83.03
2017-11-10T02:02:32.096Z,83.41
2017-11-10T02:03:12.738Z,83.7
2017-11-10T02:03:53.091Z,83.41
2017-11-10T02:04:33.531Z,84.08
2017-11-10T02:05:13.979Z,84.08
2017-11-10T02:05:54.533Z,84.75
2017-11-10T02:06:34.948Z,84.79
2017-11-10T02:07:15.375Z,84.03
2017-11-10T02:07:55.856Z,83.17
2017-11-10T02:08:36.218Z,82.98
2017-11-10T02:09:16.667Z,83.36
2017-11-10T02:09:57.039Z,83.36
2017-11-10T02:10:37.468Z,83.55
2017-11-10T02:11:17.868Z,83.59
2017-11-10T02:11:58.239Z,83.78
2017-11-10T02:12:38.661Z,82.64
2017-11-10T02:13:19.108Z,81.12
2017-11-10T02:13:59.505Z,81.02
2017-11-10T02:14:39.956Z,80.83
2017-11-10T02:15:20.351Z,80.5
2017-11-10T02:16:00.738Z,81.49
2017-11-10T02:16:41.199Z,81.97
2017-11-10T02:17:21.542Z,82.54
2017-11-10T02:18:01.948Z,82.26
2017-11-10T02:18:42.393Z,82.26
2017-11-10T02:19:22.725Z,81.59
2017-11-10T02:20:03.181Z,81.3
2017-11-10T02:20:43.534Z,81.02
2017-11-10T02:21:24.017Z,80.44
2017-11-10T02:22:04.453Z,80.83
2017-11-10T02:22:44.805Z,81.3
2017-11-10T02:23:25.230Z,81.68
2017-11-10T02:24:05.623Z,82.17
2017-11-10T02:24:46.040Z,81.21
2017-11-10T02:25:26.400Z,81.3
2017-11-10T02:26:06.804Z,81.88
2017-11-10T02:26:47.213Z,81.78
2017-11-10T02:27:27.704Z,82.26
2017-11-10T02:28:08.044Z,82.54
2017-11-10T02:28:48.446Z,82.54
2017-11-10T02:29:28.852Z,81.97
2017-11-10T02:30:09.220Z,81.49
2017-11-10T02:30:49.657Z,81.3
2017-11-10T02:31:30.073Z,80.83
2017-11-10T02:32:10.419Z,80.64
2017-11-10T02:32:50.850Z,81.12
2017-11-10T02:33:31.291Z,80.92
2017-11-10T02:34:12.531Z,80.83
2017-11-10T02:34:52.961Z,80.64
2017-11-10T02:35:33.267Z,80.83
2017-11-10T02:36:13.702Z,80.26
2017-11-10T02:36:54.158Z,80.54
2017-11-10T02:37:34.704Z,81.12
2017-11-10T02:38:15.107Z,80.26
2017-11-10T02:38:55.585Z,80.83
2017-11-10T02:39:35.994Z,81.21
2017-11-10T02:40:16.395Z,81.3
2017-11-10T02:40:56.842Z,81.06
2017-11-10T02:41:37.275Z,80.77
2017-11-10T02:42:17.931Z,80.58
2017-11-10T02:42:59.315Z,80.39
2017-11-10T02:43:39.765Z,81.06
2017-11-10T02:44:20.192Z,81.15
2017-11-10T02:45:00.608Z,80.2
2017-11-10T02:45:41.127Z,80.01
2017-11-10T02:46:21.534Z,80.3
2017-11-10T02:47:02.033Z,80.68
2017-11-10T02:47:42.515Z,80.39
2017-11-10T02:48:22.860Z,80.2
2017-11-10T02:49:03.324Z,80.49
2017-11-10T02:49:43.704Z,80.11
2017-11-10T02:50:24.160Z,80.3
2017-11-10T02:51:04.532Z,79.35
2017-11-10T02:51:44.953Z,79.15
2017-11-10T02:52:25.383Z,79.63
2017-11-10T02:53:05.807Z,79.53
2017-11-10T02:53:46.228Z,79.44
2017-11-10T02:54:26.625Z,79.25
2017-11-10T02:55:07.055Z,78.77
2017-11-10T02:55:47.463Z,78.3
2017-11-10T02:56:27.889Z,78.96
2017-11-10T02:57:08.225Z,79.25
2017-11-10T02:57:48.646Z,79.15
2017-11-10T02:58:29.064Z,79.06
2017-11-10T02:59:09.454Z,79.35
2017-11-10T02:59:49.942Z,78.86
2017-11-10T03:00:30.368Z,78.77
2017-11-10T03:01:11.052Z,78.67
2017-11-10T03:01:51.151Z,78.77
2017-11-10T03:02:31.583Z,78.58
2017-11-10T03:03:12.029Z,78.67
2017-11-10T03:03:52.374Z,79.15
2017-11-10T03:04:32.896Z,79.35
2017-11-10T03:05:13.234Z,78.86
2017-11-10T03:05:53.695Z,79.35
2017-11-10T03:06:34.131Z,79.15
2017-11-10T03:07:14.507Z,78.49
2017-11-10T03:07:54.904Z,78.62
2017-11-10T03:08:35.355Z,78.05
2017-11-10T03:09:15.775Z,77.67
2017-11-10T03:09:56.174Z,78.01
2017-11-10T03:10:36.556Z,78.1
2017-11-10T03:11:17.014Z,77.76
2017-11-10T03:11:57.410Z,77.53
2017-11-10T03:12:37.864Z,78.2
2017-11-10T03:13:18.771Z,78.49
2017-11-10T03:13:59.158Z,78.3
2017-11-10T03:14:39.645Z,78.01
2017-11-10T03:15:20.043Z,78.2
2017-11-10T03:16:00.514Z,78.3
2017-11-10T03:16:40.925Z,78.58
2017-11-10T03:17:21.389Z,78.3
2017-11-10T03:18:01.795Z,78.72
2017-11-10T03:18:42.285Z,78.14
2017-11-10T03:19:22.617Z,77.82
2017-11-10T03:20:03.078Z,77.38
2017-11-10T03:20:43.628Z,77.53
2017-11-10T03:21:23.871Z,77.38
2017-11-10T03:22:04.335Z,77.76
2017-11-10T03:22:44.690Z,77.76
2017-11-10T03:23:25.448Z,77.47
2017-11-10T03:24:05.578Z,77
2017-11-10T03:24:46.037Z,77.53
2017-11-10T03:25:26.393Z,78.14
2017-11-10T03:26:06.844Z,77.47
2017-11-10T03:26:47.178Z,77.28
2017-11-10T03:27:27.604Z,77.67
2017-11-10T03:28:07.983Z,77.19
2017-11-10T03:28:48.401Z,77.28
2017-11-10T03:29:28.772Z,77.19
2017-11-10T03:30:09.226Z,77.38
2017-11-10T03:30:49.668Z,77.57
2017-11-10T03:31:30.133Z,77.38
2017-11-10T03:32:10.454Z,77
2017-11-10T03:32:50.845Z,76.33
2017-11-10T03:33:31.259Z,76.42
2017-11-10T03:34:11.708Z,76.62
2017-11-10T03:34:52.116Z,76.04
2017-11-10T03:35:32.504Z,76.33
2017-11-10T03:36:12.956Z,76.71
2017-11-10T03:36:53.324Z,76.14
2017-11-10T03:37:33.806Z,77
2017-11-10T03:38:14.261Z,76.81
2017-11-10T03:38:54.628Z,76.14
2017-11-10T03:39:35.089Z,77.09
2017-11-10T03:40:15.471Z,76.62
2017-11-10T03:40:55.910Z,76.62
2017-11-10T03:41:36.357Z,76.62
2017-11-10T03:42:16.794Z,76.33
2017-11-10T03:42:57.165Z,76.42
2017-11-10T03:43:37.727Z,76.14
2017-11-10T03:44:18.156Z,75.95
2017-11-10T03:44:58.569Z,76.42
2017-11-10T03:45:39.029Z,76.42
2017-11-10T03:46:19.487Z,76.62
2017-11-10T03:46:59.827Z,76.71
2017-11-10T03:47:40.251Z,76.62
2017-11-10T03:48:20.642Z,76.33
2017-11-10T03:50:45.458Z,76.04
2017-11-10T03:51:21.648Z,76.33
2017-11-10T03:52:02.075Z,76.04
2017-11-10T03:52:42.517Z,76.33
2017-11-10T03:53:22.900Z,76.04
2017-11-10T03:54:03.343Z,76.04
2017-11-10T03:54:43.795Z,76.14
2017-11-10T03:55:24.165Z,75.85
2017-11-10T03:56:04.503Z,75.66
2017-11-10T03:56:44.928Z,75.66
2017-11-10T03:57:25.319Z,75.28
2017-11-10T03:58:05.826Z,75.85
2017-11-10T03:58:46.311Z,75.37
2017-11-10T03:59:26.824Z,75.37
2017-11-10T04:00:07.319Z,76.14
2017-11-10T04:00:47.787Z,76.04
2017-11-10T04:01:28.153Z,76.14
2017-11-10T04:42:55.856Z,80.35
2017-11-10T04:43:41.238Z,80.83
2017-11-10T04:44:22.493Z,80.54
2017-11-10T04:45:02.881Z,80.44
2017-11-10T04:45:43.382Z,80.26
2017-11-10T04:46:23.846Z,81.21
2017-11-10T04:47:04.288Z,80.92
2017-11-10T04:47:44.715Z,80.07
2017-11-10T04:48:25.185Z,80.73
2017-11-10T04:49:05.596Z,80.26
2017-11-10T04:49:45.930Z,80.44
2017-11-10T04:50:26.389Z,80.26
2017-11-10T04:51:06.757Z,80.73
2017-11-10T04:51:47.156Z,80.83
2017-11-10T04:52:27.532Z,81.88
2017-11-10T04:53:07.945Z,80.92
2017-11-10T04:53:48.365Z,80.64
2017-11-10T04:54:28.701Z,80.35
2017-11-10T04:55:09.125Z,80.16
2017-11-10T04:55:49.565Z,80.73
2017-11-10T04:56:29.954Z,80.35
2017-11-10T04:57:10.437Z,80.16
2017-11-10T04:57:50.773Z,79.11
2017-11-10T04:58:32.950Z,79.68
2017-11-10T04:59:13.485Z,80.16
2017-11-10T04:59:53.885Z,79.68
2017-11-10T05:00:34.285Z,79.97
2017-11-10T05:01:14.673Z,80.3
2017-11-10T05:01:55.134Z,79.25
2017-11-10T05:02:35.590Z,79.25
2017-11-10T05:04:51.112Z,78.2
2017-11-10T05:05:31.856Z,78.67
2017-11-10T05:06:12.243Z,78.58
2017-11-10T05:06:52.655Z,78.1
2017-11-10T05:07:33.037Z,78.01
2017-11-10T05:08:13.444Z,77.62
2017-11-10T05:08:53.840Z,78.01
2017-11-10T05:09:34.272Z,77.91
2017-11-10T05:10:14.703Z,78.2
2017-11-10T05:10:55.137Z,78.2
2017-11-10T05:11:35.487Z,78.01
2017-11-10T05:12:15.934Z,77.53
2017-11-10T05:12:56.339Z,78.1
2017-11-10T05:13:36.737Z,77.53
2017-11-10T05:14:17.500Z,78.01
2017-11-10T05:14:57.891Z,78.2
2017-11-10T05:15:38.281Z,77.62
2017-11-10T05:16:18.687Z,77.19
2017-11-10T05:16:59.079Z,77.09
2017-11-10T05:17:39.551Z,77.09
2017-11-10T05:18:20.001Z,76.62
2017-11-10T05:19:00.451Z,76.23
2017-11-10T05:19:40.870Z,76.9
2017-11-10T05:20:21.329Z,77
2017-11-10T05:21:01.758Z,76.71
2017-11-10T05:21:42.058Z,76.71
2017-11-10T05:22:22.463Z,76.62
2017-11-10T05:23:03.870Z,76.23
2017-11-10T05:23:44.225Z,77.09
2017-11-10T05:24:24.669Z,76.81
2017-11-10T05:25:05.149Z,76.42
2017-11-10T05:25:45.532Z,76.23
2017-11-10T05:26:26.060Z,76.04
2017-11-10T05:27:06.498Z,76.48
2017-11-10T05:27:46.914Z,76.62
2017-11-10T05:28:30.625Z,77.09
2017-11-10T05:29:11.008Z,77.19
2017-11-10T05:29:51.390Z,77.44
2017-11-10T05:30:32.335Z,76.62
2017-11-10T05:31:12.876Z,77.09
2017-11-10T05:31:53.662Z,77.09
2017-11-10T05:32:34.329Z,77.19
2017-11-10T05:33:14.697Z,77.19
2017-11-10T05:33:55.078Z,77.38
2017-11-10T05:34:35.644Z,77.57
2017-11-10T05:35:16.126Z,76.81
2017-11-10T05:35:56.552Z,76.62
2017-11-10T05:36:37.000Z,77.09
2017-11-10T05:37:17.454Z,77
2017-11-10T05:37:58.103Z,77.57
2017-11-10T05:38:38.845Z,77.38
2017-11-10T05:39:19.266Z,77
2017-11-10T05:39:59.657Z,77.57
2017-11-10T05:40:40.203Z,76.81
2017-11-10T05:41:20.659Z,76.62
2017-11-10T05:42:01.451Z,76.42
2017-11-10T05:42:41.971Z,76.04
2017-11-10T05:43:22.935Z,76.62
2017-11-10T05:44:03.414Z,77.47
2017-11-10T05:44:43.917Z,77.19
2017-11-10T05:45:24.311Z,76.14
2017-11-10T05:46:04.698Z,76.71
2017-11-10T05:46:45.170Z,77.34
2017-11-10T05:47:25.861Z,77.15
2017-11-10T05:48:06.201Z,77.15
2017-11-10T05:48:46.582Z,77.44
2017-11-10T05:49:26.998Z,76.96
2017-11-10T05:50:07.428Z,77.44
2017-11-10T05:50:47.860Z,77.25
2017-11-10T05:51:28.313Z,77.15
2017-11-10T05:52:08.848Z,77.25
2017-11-10T05:52:49.411Z,77.62
2017-11-10T05:53:30.030Z,79.06
2017-11-10T05:54:10.462Z,79.72
2017-11-10T05:54:50.864Z,80.3
2017-11-10T05:55:31.593Z,80.2
2017-11-10T05:56:12.077Z,80.2
2017-11-10T05:56:52.548Z,79.82
2017-11-10T05:57:33.351Z,79.63
2017-11-10T05:58:13.897Z,79.06
2017-11-10T05:58:54.884Z,79.44
2017-11-10T05:59:35.502Z,79.25
2017-11-10T06:00:16.764Z,79.91
2017-11-10T06:00:56.907Z,79.35
2017-11-10T06:01:37.431Z,79.63
2017-11-10T06:02:17.960Z,78.58
2017-11-10T06:02:58.454Z,78.3
2017-11-10T06:03:39.777Z,78.67
2017-11-10T06:04:19.975Z,78.58
2017-11-10T06:05:00.398Z,78.3
2017-11-10T06:05:40.845Z,78.58
2017-11-10T06:06:21.486Z,79.63
2017-11-10T06:07:01.708Z,78.58
2017-11-10T06:07:42.168Z,79.53
2017-11-10T06:08:22.609Z,79.06
2017-11-10T06:09:03.118Z,78.67
2017-11-10T06:09:43.549Z,78.58
2017-11-10T06:10:24.661Z,78.39
2017-11-10T06:11:05.026Z,78.67
2017-11-10T06:11:45.500Z,79.25
2017-11-10T06:12:25.929Z,79.15
2017-11-10T06:13:06.715Z,79.15
2017-11-10T06:13:46.910Z,78.67
2017-11-10T06:14:27.350Z,78.86
2017-11-10T06:15:07.784Z,79.28
2017-11-10T06:15:48.244Z,78.67
2017-11-10T06:16:28.884Z,78.72
2017-11-10T06:17:09.320Z,77.86
2017-11-10T06:17:50.061Z,77.28
2017-11-10T06:18:30.340Z,76.33
2017-11-10T06:19:11.091Z,77.19
2017-11-10T06:19:53.309Z,76.81
2017-11-10T06:20:33.317Z,78.14
2017-11-10T06:21:13.715Z,78.23
2017-11-10T06:21:54.187Z,78.23
2017-11-10T06:22:34.973Z,78.05
2017-11-10T06:23:15.490Z,78.14
2017-11-10T06:23:56.025Z,77.38
2017-11-10T06:24:36.633Z,76.71
2017-11-10T06:25:17.479Z,77.09
2017-11-10T06:25:57.927Z,77.86
2017-11-10T06:26:38.921Z,76.81
2017-11-10T06:27:19.654Z,76.9
2017-11-10T06:28:00.269Z,77.19
2017-11-10T06:28:41.503Z,76.71
2017-11-10T06:29:21.701Z,77.47
2017-11-10T06:30:02.483Z,77
2017-11-10T06:30:44.812Z,77
2017-11-10T06:31:26.288Z,77.09
2017-11-10T06:32:07.068Z,77.86
2017-11-10T06:32:47.412Z,77.28
2017-11-10T06:33:27.808Z,77.19
2017-11-10T06:34:08.388Z,76.9
2017-11-10T06:34:48.691Z,76.81
2017-11-10T06:35:29.554Z,76.52
2017-11-10T06:36:09.808Z,76.71
2017-11-10T06:36:50.320Z,76.71
2017-11-10T06:37:30.729Z,76.71
2017-11-10T06:38:11.299Z,77.19
2017-11-10T06:38:53.951Z,77.57
2017-11-10T06:39:34.588Z,77.19
2017-11-10T06:40:15.159Z,77.28
2017-11-10T06:40:55.606Z,77.28
2017-11-10T06:41:36.117Z,77.19
2017-11-10T06:42:17.672Z,77
2017-11-10T06:42:58.255Z,76.33
2017-11-10T06:43:38.673Z,75.66
2017-11-10T06:44:19.235Z,75.85
2017-11-10T06:44:59.690Z,76.71
2017-11-10T06:45:40.035Z,76.23
2017-11-10T06:46:20.491Z,76.62
2017-11-10T06:47:01.452Z,76.2
2017-11-10T06:47:41.422Z,76.86
2017-11-10T06:48:22.185Z,77.44
2017-11-10T06:49:02.688Z,78.14
2017-11-10T06:49:43.487Z,77.28
2017-11-10T06:50:24.036Z,77.62
2017-11-10T06:51:05.071Z,78.33
2017-11-10T06:51:45.657Z,78.05
2017-11-10T06:52:26.146Z,77.28
2017-11-10T06:53:06.545Z,77.19
2017-11-10T06:53:47.199Z,77.62
2017-11-10T06:54:27.542Z,77.57
2017-11-10T06:55:07.993Z,77
2017-11-10T06:55:48.485Z,77.06
2017-11-10T06:56:28.930Z,78.2
2017-11-10T06:57:09.373Z,78.23
2017-11-10T06:57:50.350Z,77.25
2017-11-10T06:58:30.520Z,77.76
2017-11-10T06:59:11.149Z,77.19
2017-11-10T06:59:51.528Z,76.52
2017-11-10T07:00:31.967Z,77.38
2017-11-10T07:01:12.487Z,77.19
2017-11-10T07:01:53.257Z,77.47
2017-11-10T07:02:33.624Z,77.19
2017-11-10T07:03:14.052Z,77.25
2017-11-10T07:03:54.515Z,77.25
2017-11-10T07:04:34.861Z,77.06
2017-11-10T07:05:15.301Z,77.82
2017-11-10T07:05:55.746Z,78.86
2017-11-10T07:06:36.156Z,78.96
2017-11-10T07:07:16.621Z,78.39
2017-11-10T07:07:57.872Z,78.2
2017-11-10T07:08:37.594Z,78.39
2017-11-10T07:09:17.919Z,77.53
2017-11-10T07:09:58.416Z,78.1
2017-11-10T07:10:38.787Z,78.01
2017-11-10T07:11:19.298Z,77.34
2017-11-10T07:12:00.022Z,77.44
2017-11-10T07:12:40.447Z,77.62
2017-11-10T07:13:20.919Z,77.72
2017-11-10T07:14:01.485Z,78.01
2017-11-10T07:14:41.911Z,78.2
2017-11-10T07:15:22.539Z,77.91
2017-11-10T07:16:02.785Z,78.3
2017-11-10T07:16:43.191Z,78.77
2017-11-10T07:17:23.888Z,78.86
2017-11-10T07:18:04.180Z,78.67
2017-11-10T07:18:44.538Z,78.77
2017-11-10T07:19:24.973Z,79.44
2017-11-10T07:20:05.706Z,79.35
2017-11-10T07:20:46.373Z,79.15
2017-11-10T07:21:27.104Z,78.2
2017-11-10T07:22:07.379Z,78.86
2017-11-10T07:22:48.048Z,78.58
2017-11-10T07:23:28.641Z,79.15
2017-11-10T07:24:09.087Z,80.11
2017-11-10T07:24:49.508Z,80.96
2017-11-10T07:25:29.924Z,80.87
2017-11-10T07:26:10.354Z,80.96
2017-11-10T07:26:51.037Z,81.06
2017-11-10T07:27:31.238Z,81.15
2017-11-10T07:28:11.789Z,80.87
2017-11-10T07:28:52.307Z,81.06
2017-11-10T07:29:32.857Z,80.49
2017-11-10T07:30:13.492Z,80.11
2017-11-10T07:30:56.046Z,80.3
2017-11-10T07:31:36.587Z,80.77
2017-11-10T07:32:17.052Z,80.68
2017-11-10T07:32:57.405Z,80.68
2017-11-10T07:33:37.979Z,80.96
2017-11-10T07:34:18.387Z,80.77
2017-11-10T07:34:58.913Z,81.63
2017-11-10T07:35:39.291Z,81.63
2017-11-10T07:36:19.834Z,82.01
2017-11-10T07:37:00.576Z,81.35
2017-11-10T07:37:41.473Z,81.35
2017-11-10T07:38:23.118Z,80.96
2017-11-10T07:39:03.998Z,81.35
2017-11-10T07:39:44.073Z,81.54
2017-11-10T07:40:24.540Z,82.11
2017-11-10T07:41:04.989Z,82.01
2017-11-10T07:41:45.783Z,82.01
2017-11-10T07:42:26.410Z,82.3
2017-11-10T07:43:06.811Z,82.3
2017-11-10T07:43:47.556Z,82.59
2017-11-10T07:44:27.937Z,81.44
2017-11-10T07:45:08.630Z,81.25
2017-11-10T07:45:49.153Z,81.63
2017-11-10T07:46:29.764Z,82.11
2017-11-10T07:47:10.400Z,82.59
2017-11-10T07:47:50.811Z,82.2
2017-11-10T07:48:31.670Z,82.78
2017-11-10T07:49:12.005Z,82.3
2017-11-10T07:49:52.519Z,81.25
2017-11-10T07:50:32.867Z,81.73
2017-11-10T07:51:13.302Z,81.63
2017-11-10T07:51:53.766Z,81.92
2017-11-10T07:52:34.243Z,82.97
2017-11-10T07:53:14.660Z,83.16
2017-11-10T07:53:55.111Z,82.2
2017-11-10T07:54:35.493Z,82.01
2017-11-10T07:55:16.344Z,82.78
2017-11-10T07:55:56.616Z,82.68
2017-11-10T07:56:37.177Z,82.11
2017-11-10T07:57:17.544Z,81.54
2017-11-10T07:57:58.119Z,81.44
2017-11-10T07:58:38.546Z,82.3
2017-11-10T07:59:20.928Z,81.73
2017-11-10T08:00:00.574Z,81.44
2017-11-10T08:00:41.234Z,81.92
2017-11-10T08:01:23.920Z,81.92
2017-11-10T08:02:03.956Z,81.44
2017-11-10T08:02:44.674Z,81.54
2017-11-10T08:03:25.171Z,81.35
2017-11-10T08:04:05.734Z,81.25
2017-11-10T08:04:46.415Z,81.25
2017-11-10T08:05:26.951Z,81.63
2017-11-10T08:06:07.392Z,82.3
2017-11-10T08:06:47.903Z,81.25
2017-11-10T08:07:28.342Z,81.73
2017-11-10T08:08:08.963Z,81.25
2017-11-10T08:08:49.477Z,80.96
2017-11-10T08:09:29.979Z,81.73
2017-11-10T08:10:10.408Z,81.35
2017-11-10T08:10:50.923Z,81.06
2017-11-10T08:11:31.342Z,81.25
2017-11-10T08:12:11.943Z,81.44
2017-11-10T08:12:52.510Z,81.54
2017-11-10T08:13:33.883Z,81.44
2017-11-10T08:14:13.523Z,82.11
2017-11-10T08:14:54.113Z,81.92
2017-11-10T08:15:34.496Z,81.54
2017-11-10T08:16:15.086Z,80.96
2017-11-10T08:16:55.619Z,81.35
2017-11-10T08:17:36.102Z,80.96
2017-11-10T08:18:16.547Z,81.63
2017-11-10T08:18:57.023Z,81.35
2017-11-10T08:19:37.494Z,81.44
2017-11-10T08:20:17.903Z,82.4
2017-11-10T08:20:58.283Z,82.4
2017-11-10T08:21:38.705Z,82.01
2017-11-10T08:22:19.313Z,82.3
2017-11-10T08:22:59.960Z,81.92
2017-11-10T08:23:40.217Z,81.15
2017-11-10T08:24:20.781Z,82.11
2017-11-10T08:25:01.234Z,82.59
2017-11-10T08:25:41.841Z,82.2
2017-11-10T08:26:22.382Z,83.16
2017-11-10T08:27:02.930Z,82.78
2017-11-10T08:27:43.653Z,82.01
2017-11-10T08:28:24.936Z,82.59
2017-11-10T08:29:06.207Z,82.97
2017-11-10T08:29:46.830Z,83.92
2017-11-10T08:30:27.188Z,83.92
2017-11-10T08:31:07.588Z,84.01
2017-11-10T08:31:48.038Z,83.54
2017-11-10T08:32:28.486Z,84.01
2017-11-10T08:33:08.863Z,83.96
2017-11-10T08:33:49.290Z,83.87
2017-11-10T08:34:29.710Z,83.48
2017-11-10T08:35:10.260Z,83.39
2017-11-10T08:35:50.668Z,83.2
2017-11-10T08:36:31.612Z,83.48
2017-11-10T08:37:12.188Z,83.11
2017-11-10T08:37:52.742Z,83.01
2017-11-10T08:38:33.968Z,83.11
2017-11-10T08:39:13.667Z,82.34
2017-11-10T08:39:54.559Z,82.34
2017-11-10T08:40:35.635Z,82.06
2017-11-10T08:41:16.049Z,82.34
2017-11-10T08:41:56.668Z,81.29
2017-11-10T08:42:38.072Z,81.1
2017-11-10T08:43:18.042Z,81.01
2017-11-10T08:43:59.401Z,81.58
2017-11-10T08:44:39.199Z,81.2
2017-11-10T08:45:19.874Z,81.01
2017-11-10T08:46:01.242Z,80.85
2017-11-10T08:46:41.658Z,80.95
2017-11-10T08:47:23.860Z,80.28
2017-11-10T08:48:04.125Z,81.04
2017-11-10T08:48:44.703Z,80.95
2017-11-10T08:49:25.259Z,80.38
2017-11-10T08:50:05.700Z,80.47
2017-11-10T08:50:46.217Z,80.85
2017-11-10T08:51:26.978Z,81.04
2017-11-10T08:52:07.445Z,80.57
2017-11-10T08:52:47.954Z,80.57
2017-11-10T08:53:28.377Z,80.57
2017-11-10T08:54:09.274Z,80.19
2017-11-10T08:54:49.840Z,79.71
2017-11-10T08:55:30.977Z,80.28
2017-11-10T08:56:11.587Z,80.13
2017-11-10T08:56:52.229Z,79.27
2017-11-10T08:57:32.925Z,78.41
2017-11-10T08:58:13.515Z,78.79
2017-11-10T08:58:54.035Z,79.43
2017-11-10T08:59:34.482Z,79.36
2017-11-10T09:00:14.935Z,78.75
2017-11-10T09:00:55.493Z,79.61
2017-11-10T09:01:36.039Z,79.71
2017-11-10T09:02:16.648Z,79.27
2017-11-10T09:02:58.294Z,79.36
2017-11-10T09:03:39.041Z,79.27
2017-11-10T09:04:19.499Z,79.27
2017-11-10T09:05:00.113Z,78.99
2017-11-10T09:05:40.988Z,78.89
2017-11-10T09:06:21.496Z,78.99
2017-11-10T09:07:02.154Z,78.51
2017-11-10T09:07:42.468Z,78.22
2017-11-10T09:08:22.892Z,77.65
2017-11-10T09:09:03.613Z,78.31
2017-11-10T09:09:44.226Z,78.03
2017-11-10T09:10:24.783Z,77.17
2017-11-10T09:11:05.270Z,77.26
2017-11-10T09:11:45.658Z,77.74
2017-11-10T09:12:27.020Z,77.65
2017-11-10T09:13:07.490Z,76.98
2017-11-10T09:13:48.443Z,77.17
2017-11-10T09:14:29.097Z,76.6
2017-11-10T09:15:09.538Z,76.64
2017-11-10T09:15:50.144Z,76.6
2017-11-10T09:16:30.912Z,76.98
2017-11-10T09:17:11.382Z,76.21
2017-11-10T09:17:51.908Z,76.21
2017-11-10T09:18:32.612Z,76.5
2017-11-10T09:19:13.682Z,76.98
2017-11-10T09:19:54.182Z,76.21
2017-11-10T09:20:34.646Z,76.12
2017-11-10T09:21:15.102Z,76.6
2017-11-10T09:21:55.650Z,77.26
2017-11-10T09:22:37.106Z,77.08
2017-11-10T09:23:18.003Z,76.88
2017-11-10T09:23:58.614Z,76.5
2017-11-10T09:24:39.598Z,76.69
2017-11-10T09:25:20.005Z,76.69
2017-11-10T09:26:00.726Z,76.31
2017-11-10T09:26:43.121Z,76.31
2017-11-10T09:27:24.172Z,76.88
2017-11-10T09:28:05.010Z,76.6
2017-11-10T09:28:45.343Z,76.69
2017-11-10T09:29:25.829Z,76.03
2017-11-10T09:30:06.316Z,76.31